Time;durP1;ratioP1;P1;durP2;ratioP2;P2;SDS_P1;SDS_P2;PMS_P1;PMS_P2;Temp;Humidity;BMP_temperature;BMP_pressure;BME280_temperature;BME280_humidity;BME280_pressure;Samples;Min_cycle;Max_cycle;Signal;HPM_P1;HPM_P2
2021/09/25 00:00:33;;;;;;;;;;;;;;;-142.75;89.36;76554.53;5017726;28;19924;-78
2021/09/25 00:02:59;;;;;;;;;;;;;;;-142.75;89.32;76554.53;5014754;28;19939;-78
2021/09/25 00:05:26;;;;;;;;;;;;;;;-142.75;89.21;76550.59;5026697;28;20011;-76
2021/09/25 00:07:51;;;;;;;;;;;;;;;-142.75;88.61;76552.56;5018352;28;19917;-79
2021/09/25 00:10:16;;;;;;;;;;;;;;;-142.75;88.80;76552.56;5004051;28;19917;-79
2021/09/25 00:12:42;;;;;;;;;;;;;;;-142.75;88.73;76548.63;5004509;28;20326;-76
2021/09/25 00:15:07;;;;;;;;;;;;;;;-142.75;89.29;76550.59;5001308;28;20373;-79
2021/09/25 00:17:32;;;;;;;;;;;;;;;-142.75;88.91;76552.56;5008396;28;19921;-78
2021/09/25 00:19:57;;;;;;;;;;;;;;;-142.75;89.32;76558.47;5011231;28;20342;-79
2021/09/25 00:22:22;;;;;;;;;;;;;;;-142.75;89.85;76562.41;5028564;28;19920;-78
2021/09/25 00:24:48;;;;;;;;;;;;;;;-142.75;90.25;76566.34;5021677;28;19942;-80
2021/09/25 00:27:13;;;;;;;;;;;;;;;-142.75;90.04;76552.56;5002531;28;20330;-78
2021/09/25 00:29:38;;;;;;;;;;;;;;;-142.75;90.27;76554.53;5019308;28;19958;-79
2021/09/25 00:32:04;;;;;;;;;;;;;;;-142.75;90.46;76560.44;5004613;28;19921;-78
2021/09/25 00:34:29;;;;;;;;;;;;;;;-142.75;91.02;76562.41;5016326;28;19921;-78
2021/09/25 00:36:54;;;;;;;;;;;;;;;-142.75;90.82;76550.59;5005869;28;20393;-77
2021/09/25 00:39:19;;;;;;;;;;;;;;;-142.75;91.13;76562.41;5033860;28;19920;-79
2021/09/25 00:41:44;;;;;;;;;;;;;;;-142.75;91.75;76568.31;5033432;28;19914;-81
2021/09/25 00:44:10;;;;;;;;;;;;;;;-142.75;92.14;76576.19;5034063;28;19924;-78
2021/09/25 00:46:35;;;;;;;;;;;;;;;-142.75;92.59;76574.22;5016263;28;20310;-78
2021/09/25 00:49:00;;;;;;;;;;;;;;;-142.75;92.68;76578.16;5014779;28;20012;-76
2021/09/25 00:51:26;;;;;;;;;;;;;;;-142.75;92.84;76593.91;5012509;28;20363;-79
2021/09/25 00:53:51;;;;;;;;;;;;;;;-142.75;93.37;76593.91;5034791;28;19920;-80
2021/09/25 00:56:16;;;;;;;;;;;;;;;-142.75;93.07;76584.06;5035872;28;19967;-79
2021/09/25 00:58:42;;;;;;;;;;;;;;;-142.75;93.47;76603.75;5001122;28;20000;-78
2021/09/25 01:01:07;;;;;;;;;;;;;;;-142.75;93.91;76609.66;4998416;28;19917;-77
2021/09/25 01:03:32;;;;;;;;;;;;;;;-142.75;93.99;76619.50;4998176;28;19938;-78
2021/09/25 01:05:58;;;;;;;;;;;;;;;-142.75;93.82;76621.47;5030469;28;20011;-78
2021/09/25 01:08:23;;;;;;;;;;;;;;;-142.75;94.43;76641.16;4998292;28;19917;-77
2021/09/25 01:10:52;;;;;;;;;;;;;;;-142.75;94.98;76645.09;4998347;28;20000;-79
2021/09/25 01:13:19;;;;;;;;;;;;;;;-142.75;95.25;76645.09;5016224;28;19993;-78
2021/09/25 01:15:45;;;;;;;;;;;;;;;-142.75;95.88;76654.94;4998493;28;19920;-77
2021/09/25 01:18:10;;;;;;;;;;;;;;;-142.75;96.10;76649.03;5017188;28;19913;-77
2021/09/25 01:20:35;;;;;;;;;;;;;;;-142.75;96.16;76647.06;5017639;28;19979;-79
2021/09/25 01:23:00;;;;;;;;;;;;;;;-142.75;96.44;76660.84;5015401;28;20674;-78
2021/09/25 01:25:26;;;;;;;;;;;;;;;-142.75;95.94;76643.13;5002111;28;19962;-78
2021/09/25 01:27:51;;;;;;;;;;;;;;;-142.75;96.17;76660.84;5002818;28;19913;-77
2021/09/25 01:30:17;;;;;;;;;;;;;;;-142.75;96.92;76662.81;5001931;28;19917;-77
2021/09/25 01:32:42;;;;;;;;;;;;;;;-142.75;96.83;76656.91;5007927;28;19913;-78
2021/09/25 01:35:09;;;;;;;;;;;;;;;-142.75;97.48;76664.78;5015504;28;20417;-78
2021/09/25 01:37:34;;;;;;;;;;;;;;;-142.75;97.59;76654.94;5028748;28;19926;-77
2021/09/25 01:39:59;;;;;;;;;;;;;;;-142.75;97.83;76658.88;5017167;28;20011;-78
2021/09/25 01:42:24;;;;;;;;;;;;;;;-142.75;97.65;76647.06;5013515;28;19923;-79
2021/09/25 01:44:50;;;;;;;;;;;;;;;-142.75;97.82;76645.09;5024957;28;20353;-79
2021/09/25 01:47:15;;;;;;;;;;;;;;;-142.75;98.00;76639.19;5015577;28;19921;-78
2021/09/25 01:49:40;;;;;;;;;;;;;;;-142.75;98.31;76652.97;5018673;28;20437;-77
2021/09/25 01:52:06;;;;;;;;;;;;;;;-142.75;98.82;76652.97;5030202;28;19951;-78
2021/09/25 01:54:31;;;;;;;;;;;;;;;-142.75;99.09;76645.09;5019971;28;19913;-78
2021/09/25 01:56:56;;;;;;;;;;;;;;;-142.75;99.37;76656.91;4997619;28;19936;-78
2021/09/25 01:59:21;;;;;;;;;;;;;;;-142.75;99.38;76651.00;4998960;28;20359;-78
2021/09/25 02:01:47;;;;;;;;;;;;;;;-142.75;99.63;76647.06;5015006;28;19922;-79
2021/09/25 02:04:12;;;;;;;;;;;;;;;-142.75;99.56;76649.03;5017266;28;19913;-78
2021/09/25 02:06:37;;;;;;;;;;;;;;;-142.75;99.87;76660.84;5014518;28;19987;-77
2021/09/25 02:09:02;;;;;;;;;;;;;;;-142.75;99.58;76652.97;5015212;28;19917;-80
2021/09/25 02:11:28;;;;;;;;;;;;;;;-142.75;99.87;76660.84;5005852;28;19917;-77
2021/09/25 02:13:53;;;;;;;;;;;;;;;-142.75;100.00;76662.81;5025006;28;20012;-79
2021/09/25 02:16:18;;;;;;;;;;;;;;;-142.75;100.00;76676.59;5034499;28;19921;-79
2021/09/25 02:18:43;;;;;;;;;;;;;;;-142.75;100.00;76660.84;5015946;28;20374;-77
2021/09/25 02:21:09;;;;;;;;;;;;;;;-142.75;100.00;76664.78;5006468;28;19917;-77
2021/09/25 02:23:34;;;;;;;;;;;;;;;-142.75;100.00;76660.84;5015437;28;19921;-78
2021/09/25 02:26:00;;;;;;;;;;;;;;;-142.75;100.00;76662.81;4997769;28;19913;-78
2021/09/25 02:28:25;;;;;;;;;;;;;;;-142.75;100.00;76664.78;5010671;28;19966;-78
2021/09/25 02:30:50;;;;;;;;;;;;;;;-142.75;100.00;76654.94;5022115;28;19913;-78
2021/09/25 02:33:16;;;;;;;;;;;;;;;-142.75;100.00;76660.84;5006105;28;19913;-77
2021/09/25 02:35:41;;;;;;;;;;;;;;;-142.75;100.00;76654.94;5007456;28;19913;-78
2021/09/25 02:38:06;;;;;;;;;;;;;;;-142.75;100.00;76664.78;5035119;28;19917;-78
2021/09/25 02:40:32;;;;;;;;;;;;;;;-142.75;100.00;76660.84;5034467;28;19912;-78
2021/09/25 02:42:57;;;;;;;;;;;;;;;-142.75;100.00;76664.78;5016437;28;19913;-79
2021/09/25 02:45:22;;;;;;;;;;;;;;;-142.75;100.00;76656.91;5008174;28;19979;-78
2021/09/25 02:47:47;;;;;;;;;;;;;;;-142.75;100.00;76660.84;5023235;28;19913;-78
2021/09/25 02:50:14;;;;;;;;;;;;;;;-142.75;100.00;76647.06;5012978;28;19922;-78
2021/09/25 02:52:39;;;;;;;;;;;;;;;-142.75;100.00;76651.00;5010703;28;19924;-78
2021/09/25 02:55:05;;;;;;;;;;;;;;;-142.75;100.00;76652.97;5014844;28;20355;-78
2021/09/25 02:57:31;;;;;;;;;;;;;;;-142.75;100.00;76651.00;5010685;28;20070;-78
2021/09/25 02:59:56;;;;;;;;;;;;;;;-142.75;100.00;76647.06;5049758;22;20438;-74
2021/09/25 03:02:21;;;;;;;;;;;;;;;-142.75;100.00;76645.09;5016139;28;20444;-75
2021/09/25 03:04:46;;;;;;;;;;;;;;;-142.75;100.00;76641.16;5049324;28;19955;-75
2021/09/25 03:07:11;;;;;;;;;;;;;;;-142.75;100.00;76645.09;5050106;28;19924;-75
2021/09/25 03:09:36;;;;;;;;;;;;;;;-142.75;100.00;76627.38;5045294;28;20314;-75
2021/09/25 03:12:02;;;;;;;;;;;;;;;-142.75;100.00;76621.47;5040068;28;19995;-74
2021/09/25 03:14:27;;;;;;;;;;;;;;;-142.75;100.00;76617.53;5049487;28;19912;-75
2021/09/25 03:16:52;;;;;;;;;;;;;;;-142.75;100.00;76617.53;5049942;28;20477;-74
2021/09/25 03:19:18;;;;;;;;;;;;;;;-142.75;100.00;76619.50;5049771;28;20366;-75
2021/09/25 03:21:43;;;;;;;;;;;;;;;-142.75;100.00;76635.25;5049866;28;19919;-75
2021/09/25 03:24:08;;;;;;;;;;;;;;;-142.75;100.00;76637.22;5031614;28;19919;-74
2021/09/25 03:26:34;;;;;;;;;;;;;;;-142.75;100.00;76631.31;5030055;28;19925;-75
2021/09/25 03:28:59;;;;;;;;;;;;;;;-142.75;100.00;76637.22;5030378;28;19986;-75
2021/09/25 03:31:24;;;;;;;;;;;;;;;-142.75;100.00;76625.41;5033358;28;19991;-75
2021/09/25 03:33:49;;;;;;;;;;;;;;;-142.75;100.00;76621.47;5031445;28;19919;-75
2021/09/25 03:36:14;;;;;;;;;;;;;;;-142.75;100.00;76623.44;5029364;28;19913;-76
2021/09/25 03:38:40;;;;;;;;;;;;;;;-142.75;100.00;76633.28;5011915;28;19913;-75
2021/09/25 03:41:05;;;;;;;;;;;;;;;-142.75;100.00;76629.34;5020147;28;20283;-75
2021/09/25 03:43:30;;;;;;;;;;;;;;;-142.75;100.00;76629.34;5049169;28;19996;-72
2021/09/25 03:45:56;;;;;;;;;;;;;;;-142.75;100.00;76631.31;5049189;28;20050;-75
2021/09/25 03:48:21;;;;;;;;;;;;;;;-142.75;100.00;76633.28;5012924;28;20283;-75
2021/09/25 03:50:46;;;;;;;;;;;;;;;-142.75;100.00;76629.34;5011708;28;19939;-75
2021/09/25 03:53:11;;;;;;;;;;;;;;;-142.75;100.00;76633.28;5029474;28;19917;-75
2021/09/25 03:55:37;;;;;;;;;;;;;;;-142.75;100.00;76637.22;5029232;28;20586;-74
2021/09/25 03:58:02;;;;;;;;;;;;;;;-142.75;100.00;76633.28;5036265;28;19956;-72
2021/09/25 04:00:27;;;;;;;;;;;;;;;-142.75;100.00;76625.41;5032201;28;19920;-74
2021/09/25 04:02:52;;;;;;;;;;;;;;;-142.75;100.00;76635.25;5035192;28;19913;-74
2021/09/25 04:05:18;;;;;;;;;;;;;;;-142.75;100.00;76639.19;5037641;28;19932;-75
2021/09/25 04:07:44;;;;;;;;;;;;;;;-142.75;100.00;76635.25;5029346;28;19913;-75
2021/09/25 04:10:09;;;;;;;;;;;;;;;-142.75;100.00;76631.31;5033216;28;19923;-74
2021/09/25 04:12:34;;;;;;;;;;;;;;;-142.75;100.00;76625.41;5048964;28;19916;-73
2021/09/25 04:15:00;;;;;;;;;;;;;;;-142.75;100.00;76617.53;5039940;28;19913;-75
2021/09/25 04:17:25;;;;;;;;;;;;;;;-142.75;100.00;76615.56;5029288;28;19944;-75
2021/09/25 04:19:50;;;;;;;;;;;;;;;-142.75;100.00;76619.50;5029288;28;19913;-74
2021/09/25 04:22:15;;;;;;;;;;;;;;;-142.75;100.00;76621.47;5029797;28;20378;-74
2021/09/25 04:24:42;;;;;;;;;;;;;;;-142.75;100.00;76625.41;5029781;28;20056;-74
2021/09/25 04:27:07;;;;;;;;;;;;;;;-142.75;100.00;76635.25;5013317;28;19917;-72
2021/09/25 04:29:32;;;;;;;;;;;;;;;-142.75;100.00;76633.28;5031227;28;19924;-75
2021/09/25 04:31:58;;;;;;;;;;;;;;;-142.75;100.00;76631.31;5012842;28;19913;-74
2021/09/25 04:34:23;;;;;;;;;;;;;;;-142.75;100.00;76637.22;5030710;28;19913;-74
2021/09/25 04:36:49;;;;;;;;;;;;;;;-142.75;100.00;76637.22;5015321;28;20279;-74
2021/09/25 04:39:14;;;;;;;;;;;;;;;-142.75;100.00;76635.25;5032784;28;19952;-74
2021/09/25 04:41:39;;;;;;;;;;;;;;;-142.75;100.00;76637.22;5050696;28;19916;-74
2021/09/25 04:44:04;;;;;;;;;;;;;;;-142.75;100.00;76629.34;5050549;28;19928;-75
2021/09/25 04:46:29;;;;;;;;;;;;;;;-142.75;100.00;76631.31;5050756;28;20441;-74
2021/09/25 04:48:55;;;;;;;;;;;;;;;-142.75;100.00;76635.25;5032822;28;20385;-74
2021/09/25 04:51:20;;;;;;;;;;;;;;;-142.75;100.00;76645.09;5032922;28;19924;-74
2021/09/25 04:53:45;;;;;;;;;;;;;;;-142.75;100.00;76635.25;5050400;28;19912;-74
2021/09/25 04:56:11;;;;;;;;;;;;;;;-142.75;100.00;76649.03;5049362;28;19952;-75
2021/09/25 04:58:37;;;;;;;;;;;;;;;-142.75;100.00;76643.13;5030720;28;19963;-75
2021/09/25 05:01:03;;;;;;;;;;;;;;;-142.75;100.00;76641.16;5030618;28;19917;-74
2021/09/25 05:03:28;;;;;;;;;;;;;;;-142.75;100.00;76637.22;5030646;28;20004;-75
2021/09/25 05:05:54;;;;;;;;;;;;;;;-142.75;100.00;76641.16;5012758;28;20319;-74
2021/09/25 05:08:19;;;;;;;;;;;;;;;-142.75;100.00;76641.16;5044690;28;19996;-74
2021/09/25 05:10:44;;;;;;;;;;;;;;;-142.75;100.00;76652.97;5037120;28;19917;-74
2021/09/25 05:13:09;;;;;;;;;;;;;;;-142.75;100.00;76652.97;5030649;28;19921;-75
2021/09/25 05:15:35;;;;;;;;;;;;;;;-142.75;100.00;76651.00;5031609;28;19920;-74
2021/09/25 05:18:00;;;;;;;;;;;;;;;-142.75;100.00;76643.13;5032846;28;19913;-74
2021/09/25 05:20:25;;;;;;;;;;;;;;;-142.75;100.00;76635.25;5042117;28;19913;-74
2021/09/25 05:22:50;;;;;;;;;;;;;;;-142.75;100.00;76643.13;5034205;28;19913;-74
2021/09/25 05:25:15;;;;;;;;;;;;;;;-142.75;100.00;76649.03;5033749;28;19920;-74
2021/09/25 05:27:42;;;;;;;;;;;;;;;-142.75;100.00;76639.19;5034140;28;19924;-74
2021/09/25 05:30:08;;;;;;;;;;;;;;;-142.75;100.00;76643.13;5033949;28;19928;-75
2021/09/25 05:32:33;;;;;;;;;;;;;;;-142.75;100.00;76645.09;5034029;28;19913;-74
2021/09/25 05:34:58;;;;;;;;;;;;;;;-142.75;100.00;76631.31;5033679;28;19921;-74
2021/09/25 05:37:24;;;;;;;;;;;;;;;-142.75;100.00;76645.09;5033865;28;19920;-75
2021/09/25 05:39:54;;;;;;;;;;;;;;;-142.75;100.00;76652.97;5033722;28;19919;-75
2021/09/25 05:42:19;;;;;;;;;;;;;;;-142.75;100.00;76654.94;5016160;28;20402;-75
2021/09/25 05:44:45;;;;;;;;;;;;;;;-142.75;100.00;76643.13;5033488;28;19913;-74
2021/09/25 05:47:11;;;;;;;;;;;;;;;-142.75;100.00;76635.25;5033863;28;19967;-75
2021/09/25 05:49:36;;;;;;;;;;;;;;;-142.75;100.00;76649.03;5015739;28;19925;-75
2021/09/25 05:52:01;;;;;;;;;;;;;;;-142.75;100.00;76645.09;5033764;28;19920;-74
2021/09/25 05:54:27;;;;;;;;;;;;;;;-142.75;100.00;76633.28;5033191;28;19917;-74
2021/09/25 05:56:52;;;;;;;;;;;;;;;-142.75;100.00;76627.38;5015835;28;20294;-75
2021/09/25 05:59:17;;;;;;;;;;;;;;;-142.75;100.00;76631.31;5033410;28;19920;-74
2021/09/25 06:01:43;;;;;;;;;;;;;;;-142.75;100.00;76633.28;5033530;28;19924;-74
2021/09/25 06:04:09;;;;;;;;;;;;;;;-142.75;100.00;76625.41;5033171;28;19913;-74
2021/09/25 06:06:34;;;;;;;;;;;;;;;-142.75;100.00;76633.28;5033340;28;20514;-74
2021/09/25 06:08:59;;;;;;;;;;;;;;;-142.75;100.00;76639.19;5033156;28;19948;-75
2021/09/25 06:11:24;;;;;;;;;;;;;;;-142.75;100.00;76633.28;5033326;28;20616;-74
2021/09/25 06:13:49;;;;;;;;;;;;;;;-142.75;100.00;76629.34;5032996;28;19920;-74
2021/09/25 06:16:14;;;;;;;;;;;;;;;-142.75;100.00;76627.38;5015495;28;19971;-75
2021/09/25 06:18:40;;;;;;;;;;;;;;;-142.75;100.00;76617.53;5015382;28;19913;-74
2021/09/25 06:21:05;;;;;;;;;;;;;;;-142.75;100.00;76621.47;5015320;28;19931;-75
2021/09/25 06:23:30;;;;;;;;;;;;;;;-142.75;100.00;76621.47;5033011;28;20375;-74
2021/09/25 06:25:55;;;;;;;;;;;;;;;-142.75;100.00;76617.53;5032775;28;20000;-75
2021/09/25 06:28:20;;;;;;;;;;;;;;;-142.75;100.00;76615.56;5032408;28;19974;-75
2021/09/25 06:30:46;;;;;;;;;;;;;;;-142.75;100.00;76617.53;5032808;28;20411;-74
2021/09/25 06:33:11;;;;;;;;;;;;;;;-142.75;100.00;76613.59;5032911;28;19913;-74
2021/09/25 06:35:37;;;;;;;;;;;;;;;-142.75;100.00;76599.81;5014861;28;19913;-75
2021/09/25 06:38:02;;;;;;;;;;;;;;;-142.75;100.00;76613.59;5032761;28;20022;-75
2021/09/25 06:40:28;;;;;;;;;;;;;;;-142.75;100.00;76601.78;5032759;28;19970;-74
2021/09/25 06:42:53;;;;;;;;;;;;;;;-142.75;100.00;76617.53;5014957;28;19913;-74
2021/09/25 06:45:18;;;;;;;;;;;;;;;-142.75;100.00;76607.69;5014570;28;19936;-74
2021/09/25 06:47:43;;;;;;;;;;;;;;;-142.75;100.00;76611.63;5017255;28;19920;-73
2021/09/25 06:50:09;;;;;;;;;;;;;;;-142.75;100.00;76605.72;5013919;28;19921;-74
2021/09/25 06:52:34;;;;;;;;;;;;;;;-142.75;100.00;76605.72;5031620;28;20396;-72
2021/09/25 06:54:59;;;;;;;;;;;;;;;-142.75;100.00;76597.84;5030914;28;19912;-72
2021/09/25 06:57:26;;;;;;;;;;;;;;;-142.75;100.00;76593.91;5031639;28;19990;-73
2021/09/25 06:59:51;;;;;;;;;;;;;;;-142.75;100.00;76582.09;5013485;28;20010;-73
2021/09/25 07:02:16;;;;;;;;;;;;;;;-142.75;100.00;76582.09;5031414;28;19964;-72
2021/09/25 07:04:41;;;;;;;;;;;;;;;-142.75;100.00;76597.84;5010969;28;20309;-74
2021/09/25 07:07:06;;;;;;;;;;;;;;;-142.75;100.00;76582.09;5031795;28;19917;-73
2021/09/25 07:09:32;;;;;;;;;;;;;;;-142.75;100.00;76580.13;5033922;28;20003;-73
2021/09/25 07:11:57;;;;;;;;;;;;;;;-142.75;100.00;76593.91;5051228;28;19912;-73
2021/09/25 07:14:22;;;;;;;;;;;;;;;-142.75;100.00;76582.09;5026908;28;19917;-72
2021/09/25 07:16:47;;;;;;;;;;;;;;;-142.75;100.00;76558.47;5037258;28;19913;-73
2021/09/25 07:19:13;;;;;;;;;;;;;;;-142.75;100.00;76558.47;5017772;28;20351;-74
2021/09/25 07:21:38;;;;;;;;;;;;;;;-142.75;100.00;76546.66;5050971;28;20425;-73
2021/09/25 07:24:03;;;;;;;;;;;;;;;-142.75;100.00;76558.47;5032923;28;19978;-72
2021/09/25 07:26:28;;;;;;;;;;;;;;;-142.75;100.00;76548.63;5032913;28;19917;-73
2021/09/25 07:28:54;;;;;;;;;;;;;;;-142.75;100.00;76530.91;5050816;28;20016;-73
2021/09/25 07:31:19;;;;;;;;;;;;;;;-142.75;100.00;76517.16;5042711;28;19920;-72
2021/09/25 07:33:44;;;;;;;;;;;;;;;-142.75;100.00;76503.38;5012759;28;20009;-74
2021/09/25 07:36:10;;;;;;;;;;;;;;;-142.75;100.00;76499.44;5030767;28;19916;-72
2021/09/25 07:38:35;;;;;;;;;;;;;;;-142.75;100.00;76473.84;5030010;28;19917;-73
2021/09/25 07:41:01;;;;;;;;;;;;;;;-142.75;100.00;76464.00;5030399;28;19913;-73
2021/09/25 07:43:26;;;;;;;;;;;;;;;-142.75;100.00;76454.16;5030477;28;19916;-73
2021/09/25 07:45:52;;;;;;;;;;;;;;;-142.75;100.00;76444.31;5012692;28;19913;-73
2021/09/25 07:48:17;;;;;;;;;;;;;;;-142.75;100.00;76428.56;5028933;28;20008;-73
2021/09/25 07:50:43;;;;;;;;;;;;;;;-142.75;100.00;76420.69;5030416;28;19921;-73
2021/09/25 07:53:08;;;;;;;;;;;;;;;-142.75;100.00;76454.16;5030577;28;19913;-73
2021/09/25 07:55:34;;;;;;;;;;;;;;;-142.75;100.00;76430.53;5041979;28;19912;-72
2021/09/25 07:58:00;;;;;;;;;;;;;;;-142.75;100.00;76454.16;5050413;28;20389;-72
2021/09/25 08:00:25;;;;;;;;;;;;;;;-142.75;100.00;76436.44;5050136;28;19920;-73
2021/09/25 08:02:50;;;;;;;;;;;;;;;-142.75;100.00;76456.13;5025841;28;19920;-73
2021/09/25 08:05:15;;;;;;;;;;;;;;;-142.75;100.00;76448.25;5029869;28;19920;-74
2021/09/25 08:07:41;;;;;;;;;;;;;;;-142.75;100.00;76444.31;5030200;28;19913;-73
2021/09/25 08:10:07;;;;;;;;;;;;;;;-142.75;100.00;76440.38;5030254;28;19924;-72
2021/09/25 08:12:32;;;;;;;;;;;;;;;-142.75;100.00;76424.63;5030993;28;20337;-73
2021/09/25 08:14:58;;;;;;;;;;;;;;;-142.75;99.29;76402.97;5049906;28;19916;-71
2021/09/25 08:17:23;;;;;;;;;;;;;;;-142.75;98.47;76383.28;5022049;28;19913;-73
2021/09/25 08:19:49;;;;;;;;;;;;;;;-142.75;96.91;76377.38;5049827;28;19971;-73
2021/09/25 08:22:14;;;;;;;;;;;;;;;-142.75;95.36;76357.69;5034502;28;19913;-73
2021/09/25 08:24:39;;;;;;;;;;;;;;;-142.75;93.99;76320.31;5029961;28;20412;-72
2021/09/25 08:27:04;;;;;;;;;;;;;;;-142.75;93.64;76277.00;5030126;28;20302;-72
2021/09/25 08:29:29;;;;;;;;;;;;;;;-142.75;91.15;76231.72;5030174;28;19928;-72
2021/09/25 08:31:54;;;;;;;;;;;;;;;-142.75;87.57;76190.41;5030028;28;19920;-73
2021/09/25 08:34:20;;;;;;;;;;;;;;;-142.75;85.47;76176.63;5028152;28;20374;-72
2021/09/25 08:36:45;;;;;;;;;;;;;;;-142.75;83.39;76188.44;5047778;28;19913;-73
2021/09/25 08:39:11;;;;;;;;;;;;;;;-142.75;83.48;76219.91;5030067;28;19917;-72
2021/09/25 08:41:36;;;;;;;;;;;;;;;-142.75;84.57;76251.41;5025965;28;19917;-73
2021/09/25 08:44:02;;;;;;;;;;;;;;;-142.75;86.31;76243.53;5027308;28;19913;-74
2021/09/25 08:46:27;;;;;;;;;;;;;;;-142.75;86.32;76233.69;5033398;28;19919;-73
2021/09/25 08:48:52;;;;;;;;;;;;;;;-142.75;85.95;76221.88;5031647;28;19974;-73
2021/09/25 08:51:18;;;;;;;;;;;;;;;-142.75;84.50;76208.09;5017277;28;19919;-72
2021/09/25 08:53:43;;;;;;;;;;;;;;;-142.75;84.23;76196.31;5033340;28;20471;-73
2021/09/25 08:56:09;;;;;;;;;;;;;;;-142.75;83.22;76202.19;5033347;28;19920;-71
2021/09/25 08:58:34;;;;;;;;;;;;;;;-142.75;85.02;76255.34;5044433;28;19924;-72
2021/09/25 09:00:59;;;;;;;;;;;;;;;-142.75;85.41;76247.47;5053173;28;19913;-72
2021/09/25 09:03:27;;;;;;;;;;;;;;;-142.75;86.42;76275.03;5051150;28;19963;-74
2021/09/25 09:05:54;;;;;;;;;;;;;;;-142.75;87.43;76314.41;5033339;28;19917;-73
2021/09/25 09:08:23;;;;;;;;;;;;;;;-142.75;87.94;76294.72;5033726;28;20298;-74
2021/09/25 09:10:48;;;;;;;;;;;;;;;-142.75;88.21;76273.06;5033491;28;20290;-73
2021/09/25 09:13:15;;;;;;;;;;;;;;;-142.75;87.54;76282.91;5033645;28;19931;-72
2021/09/25 09:15:40;;;;;;;;;;;;;;;-142.75;87.01;76282.91;5033117;28;19967;-71
2021/09/25 09:18:13;;;;;;;;;;;;;;;-142.75;86.92;76275.03;5015644;28;19921;-73
2021/09/25 09:20:39;;;;;;;;;;;;;;;-142.75;86.73;76271.09;5033120;28;19920;-74
2021/09/25 09:23:19;;;;;;;;;;;;;;;-142.75;88.94;76328.19;5014004;28;19920;-73
2021/09/25 09:25:45;;;;;;;;;;;;;;;-142.75;88.26;76298.66;5032942;28;20039;-74
2021/09/25 09:28:20;;;;;;;;;;;;;;;-142.75;88.45;76286.84;5033257;28;20398;-73
2021/09/25 09:30:46;;;;;;;;;;;;;;;-142.75;89.40;76312.44;5033175;28;19917;-73
2021/09/25 09:33:25;;;;;;;;;;;;;;;-142.75;88.88;76332.13;5033082;28;19913;-73
2021/09/25 09:35:50;;;;;;;;;;;;;;;-142.75;88.67;76271.09;5032875;28;19940;-73
2021/09/25 09:38:21;;;;;;;;;;;;;;;-142.75;87.85;76251.41;5015244;28;20409;-73
2021/09/25 09:40:49;;;;;;;;;;;;;;;-142.75;86.65;76241.56;5032867;28;19913;-73
2021/09/25 09:43:15;;;;;;;;;;;;;;;-142.75;84.48;76261.25;5032266;28;19917;-75
2021/09/25 09:45:40;;;;;;;;;;;;;;;-142.75;85.25;76243.53;5031674;28;19936;-73
2021/09/25 09:48:08;;;;;;;;;;;;;;;-142.75;85.35;76214.00;5032899;28;19936;-74
2021/09/25 09:50:37;;;;;;;;;;;;;;;-142.75;86.13;76239.59;5043738;28;19950;-74
2021/09/25 09:53:10;;;;;;;;;;;;;;;-142.75;84.90;76243.53;5032656;28;19940;-73
2021/09/25 09:55:35;;;;;;;;;;;;;;;-142.75;85.19;76290.78;5032494;28;19912;-75
2021/09/25 09:58:02;;;;;;;;;;;;;;;-142.75;85.78;76290.78;5032792;28;20003;-73
2021/09/25 10:00:27;;;;;;;;;;;;;;;-142.75;86.92;76261.25;5030040;28;20405;-73
2021/09/25 10:02:52;;;;;;;;;;;;;;;-142.75;84.64;76263.22;5047631;28;19917;-74
2021/09/25 10:05:18;;;;;;;;;;;;;;;-142.75;84.67;76257.31;5034309;28;20342;-73
2021/09/25 10:07:43;;;;;;;;;;;;;;;-142.75;85.44;76229.75;5052043;28;20022;-73
2021/09/25 10:10:09;;;;;;;;;;;;;;;-142.75;83.75;76180.56;5045795;28;20348;-73
2021/09/25 10:12:34;;;;;;;;;;;;;;;-142.75;80.71;76062.47;5052308;28;20007;-73
2021/09/25 10:15:00;;;;;;;;;;;;;;;-142.75;75.61;75999.47;5051966;28;20317;-73
2021/09/25 10:17:25;;;;;;;;;;;;;;;-142.75;73.56;75989.63;5052175;28;19948;-74
2021/09/25 10:19:50;;;;;;;;;;;;;;;-142.75;71.85;75956.19;5026301;28;19913;-72
2021/09/25 10:22:21;;;;;;;;;;;;;;;-142.75;70.99;75938.47;5032603;28;19917;-72
2021/09/25 10:24:50;;;;;;;;;;;;;;;-142.75;72.96;76078.19;5031772;28;19936;-72
2021/09/25 10:27:16;;;;;;;;;;;;;;;-142.75;73.92;76086.06;5031557;28;19913;-74
2021/09/25 10:29:42;;;;;;;;;;;;;;;-142.75;76.32;76115.59;5013967;28;19923;-73
2021/09/25 10:32:16;;;;;;;;;;;;;;;-142.75;74.26;76086.06;5013127;28;19921;-74
2021/09/25 10:35:00;;;;;;;;;;;;;;;-142.75;76.06;76078.19;5031547;28;20012;-74
2021/09/25 10:37:29;;;;;;;;;;;;;;;-142.75;74.86;76036.88;5031914;28;19959;-73
2021/09/25 10:39:56;;;;;;;;;;;;;;;-142.75;73.99;76005.38;5029350;28;20410;-74
2021/09/25 10:42:21;;;;;;;;;;;;;;;-142.75;72.75;75966.00;5031890;28;20005;-74
2021/09/25 10:44:54;;;;;;;;;;;;;;;-142.75;70.83;75995.53;5013579;28;19995;-73
2021/09/25 10:47:21;;;;;;;;;;;;;;;-142.75;71.04;75956.19;5031477;28;19920;-73
2021/09/25 10:49:48;;;;;;;;;;;;;;;-142.75;70.92;76019.16;5029943;28;20021;-76
2021/09/25 10:52:15;;;;;;;;;;;;;;;-142.75;71.52;76029.00;5031702;28;19913;-73
2021/09/25 10:54:41;;;;;;;;;;;;;;;-142.75;72.35;76009.31;5031325;28;20032;-73
2021/09/25 10:57:08;;;;;;;;;;;;;;;-142.75;73.10;76021.13;5039719;28;20612;-74
2021/09/25 10:59:33;;;;;;;;;;;;;;;-142.75;74.84;76019.16;5051274;28;19927;-72
2021/09/25 11:01:58;;;;;;;;;;;;;;;-142.75;76.62;76066.41;5050970;28;19912;-73
2021/09/25 11:04:23;;;;;;;;;;;;;;;-142.75;74.14;75905.00;5050943;28;19913;-73
2021/09/25 11:06:52;;;;;;;;;;;;;;;-142.75;68.54;75849.91;5037873;28;20022;-72
2021/09/25 11:09:24;;;;;;;;;;;;;;;-142.75;70.21;76042.78;5040511;28;19996;-75
2021/09/25 11:11:51;;;;;;;;;;;;;;;-142.75;76.90;76164.81;5031528;28;19920;-74
2021/09/25 11:14:20;;;;;;;;;;;;;;;-142.75;78.47;76121.50;5031018;28;19917;-74
2021/09/25 11:16:48;;;;;;;;;;;;;;;-142.75;75.76;76090.00;5034967;28;20026;-72
2021/09/25 11:19:25;;;;;;;;;;;;;;;-142.75;72.88;75967.97;5012113;28;20722;-73
2021/09/25 11:22:07;;;;;;;;;;;;;;;-142.75;74.41;76101.81;5031008;28;19917;-75
2021/09/25 11:24:38;;;;;;;;;;;;;;;-142.75;77.71;76176.63;5029321;28;19917;-74
2021/09/25 11:27:07;;;;;;;;;;;;;;;-142.75;79.14;76154.97;5064640;22;20291;-79
2021/09/25 11:29:32;;;;;;;;;;;;;;;-142.75;76.64;76023.09;5022110;28;19960;-79
2021/09/25 11:32:03;;;;;;;;;;;;;;;-142.75;74.06;76029.00;5022862;28;19919;-79
2021/09/25 11:34:29;;;;;;;;;;;;;;;-142.75;71.72;75952.25;5043904;28;20413;-80
2021/09/25 11:36:56;;;;;;;;;;;;;;;-142.75;73.77;76070.34;5043873;28;19917;-78
2021/09/25 11:39:22;;;;;;;;;;;;;;;-142.75;77.13;76082.13;5028588;28;19913;-79
2021/09/25 11:42:06;;;;;;;;;;;;;;;-142.75;75.85;76019.16;5048965;28;19935;-80
2021/09/25 11:44:47;;;;;;;;;;;;;;;-142.75;74.77;76029.00;5024678;28;19913;-79
2021/09/25 11:47:31;;;;;;;;;;;;;;;-142.75;74.44;76054.59;5022945;28;19959;-79
2021/09/25 11:49:58;;;;;;;;;;;;;;;-142.75;73.73;75964.03;5020642;28;19964;-80
2021/09/25 11:52:24;;;;;;;;;;;;;;;-142.75;70.62;75899.09;5025964;28;19988;-78
2021/09/25 11:54:49;;;;;;;;;;;;;;;-142.75;68.43;75916.81;5026601;28;19948;-80
2021/09/25 11:57:19;;;;;;;;;;;;;;;-142.75;69.94;75908.94;5046527;28;20446;-79
2021/09/25 11:59:45;;;;;;;;;;;;;;;-142.75;69.62;75851.88;5041011;28;19924;-78
2021/09/25 12:02:10;;;;;;;;;;;;;;;-142.75;67.52;75796.75;5048756;28;20922;-81
2021/09/25 12:04:36;;;;;;;;;;;;;;;-142.75;66.95;75899.09;5026404;28;20271;-78
2021/09/25 12:07:01;;;;;;;;;;;;;;;-142.75;68.90;75910.91;5033026;28;19913;-78
2021/09/25 12:09:43;;;;;;;;;;;;;;;-142.75;69.82;75954.22;5036559;28;19924;-80
2021/09/25 12:12:08;;;;;;;;;;;;;;;-142.75;72.87;76042.78;5043614;28;19913;-80
2021/09/25 12:14:44;;;;;;;;;;;;;;;-142.75;74.21;76030.97;5037503;28;19924;-78
2021/09/25 12:17:11;;;;;;;;;;;;;;;-142.75;76.06;76060.50;5044192;28;19987;-80